sensor_id;sensor_type;location;lat;lon;timestamp;temperature;humidity
20162;DHT22;51382;53.180;15.414;2022-12-18T00:07:45;-5.90;99.90
20162;DHT22;51382;53.180;15.414;2022-12-18T00:22:51;-6.10;99.90
20162;DHT22;51382;53.180;15.414;2022-12-18T00:37:57;-5.90;99.90
20162;DHT22;51382;53.180;15.414;2022-12-18T00:53:03;-5.70;99.90
20162;DHT22;51382;53.180;15.414;2022-12-18T01:08:17;-5.70;99.90
20162;DHT22;51382;53.180;15.414;2022-12-18T01:23:26;-6.00;99.90
20162;DHT22;51382;53.180;15.414;2022-12-18T01:38:38;-5.80;99.90
20162;DHT22;51382;53.180;15.414;2022-12-18T01:53:49;-6.00;99.90
20162;DHT22;51382;53.180;15.414;2022-12-18T02:09:00;-5.90;99.90
20162;DHT22;51382;53.180;15.414;2022-12-18T02:24:22;-6.10;99.90
20162;DHT22;51382;53.180;15.414;2022-12-18T02:39:43;-6.10;99.90
20162;DHT22;51382;53.180;15.414;2022-12-18T02:54:55;-6.10;99.90
20162;DHT22;51382;53.180;15.414;2022-12-18T03:10:11;-5.80;99.90
20162;DHT22;51382;53.180;15.414;2022-12-18T03:25:21;-5.60;99.90
20162;DHT22;51382;53.180;15.414;2022-12-18T03:40:31;-5.60;99.90
20162;DHT22;51382;53.180;15.414;2022-12-18T03:55:50;-5.30;99.90
20162;DHT22;51382;53.180;15.414;2022-12-18T04:10:58;-5.30;99.90
20162;DHT22;51382;53.180;15.414;2022-12-18T04:26:04;-5.10;99.90
20162;DHT22;51382;53.180;15.414;2022-12-18T04:41:45;-5.10;99.90
20162;DHT22;51382;53.180;15.414;2022-12-18T04:56:51;-5.00;99.90
20162;DHT22;51382;53.180;15.414;2022-12-18T05:11:58;-5.00;99.90
20162;DHT22;51382;53.180;15.414;2022-12-18T05:27:04;-5.20;99.90
20162;DHT22;51382;53.180;15.414;2022-12-18T05:42:10;-4.90;99.90
20162;DHT22;51382;53.180;15.414;2022-12-18T05:57:17;-4.80;99.90
20162;DHT22;51382;53.180;15.414;2022-12-18T06:12:23;-4.70;99.90
20162;DHT22;51382;53.180;15.414;2022-12-18T06:27:30;-4.90;99.90
20162;DHT22;51382;53.180;15.414;2022-12-18T06:42:37;-4.90;99.90
20162;DHT22;51382;53.180;15.414;2022-12-18T06:57:43;-4.90;99.90
20162;DHT22;51382;53.180;15.414;2022-12-18T07:12:49;-5.00;99.90
20162;DHT22;51382;53.180;15.414;2022-12-18T07:27:55;-5.20;99.90
20162;DHT22;51382;53.180;15.414;2022-12-18T07:43:02;-5.40;99.90
20162;DHT22;51382;53.180;15.414;2022-12-18T07:58:09;-5.40;99.90
20162;DHT22;51382;53.180;15.414;2022-12-18T08:13:16;-5.50;99.90
20162;DHT22;51382;53.180;15.414;2022-12-18T08:28:22;-5.70;99.90
20162;DHT22;51382;53.180;15.414;2022-12-18T08:43:28;-5.80;99.90
20162;DHT22;51382;53.180;15.414;2022-12-18T08:58:52;-5.70;99.90
20162;DHT22;51382;53.180;15.414;2022-12-18T09:14:04;-5.60;99.90
20162;DHT22;51382;53.180;15.414;2022-12-18T09:29:10;-5.50;99.90
20162;DHT22;51382;53.180;15.414;2022-12-18T09:44:20;-5.10;99.90
20162;DHT22;51382;53.180;15.414;2022-12-18T09:59:31;-4.90;99.90
20162;DHT22;51382;53.180;15.414;2022-12-18T10:14:49;-4.70;99.90
20162;DHT22;51382;53.180;15.414;2022-12-18T10:29:59;-4.50;99.90
20162;DHT22;51382;53.180;15.414;2022-12-18T10:45:10;-4.30;99.90
20162;DHT22;51382;53.180;15.414;2022-12-18T11:00:23;-4.10;99.90
20162;DHT22;51382;53.180;15.414;2022-12-18T11:15:37;-3.90;99.90
20162;DHT22;51382;53.180;15.414;2022-12-18T11:30:46;-3.70;99.90
20162;DHT22;51382;53.180;15.414;2022-12-18T11:45:59;-3.90;99.90
20162;DHT22;51382;53.180;15.414;2022-12-18T12:01:15;-3.70;99.90
20162;DHT22;51382;53.180;15.414;2022-12-18T12:16:40;-3.70;99.90
20162;DHT22;51382;53.180;15.414;2022-12-18T12:32:03;-3.80;99.90
20162;DHT22;51382;53.180;15.414;2022-12-18T12:47:26;-4.10;99.90
20162;DHT22;51382;53.180;15.414;2022-12-18T13:02:44;-4.10;99.90
20162;DHT22;51382;53.180;15.414;2022-12-18T13:18:04;-3.90;99.90
20162;DHT22;51382;53.180;15.414;2022-12-18T13:48:57;-3.90;99.90
20162;DHT22;51382;53.180;15.414;2022-12-18T14:04:12;-3.70;99.90
20162;DHT22;51382;53.180;15.414;2022-12-18T14:19:28;-3.70;99.90
20162;DHT22;51382;53.180;15.414;2022-12-18T14:34:37;-3.60;99.90
20162;DHT22;51382;53.180;15.414;2022-12-18T14:49:48;-3.80;99.90
20162;DHT22;51382;53.180;15.414;2022-12-18T15:05:00;-3.70;99.90
20162;DHT22;51382;53.180;15.414;2022-12-18T15:20:16;-3.80;99.90
20162;DHT22;51382;53.180;15.414;2022-12-18T15:35:27;-3.80;99.90
20162;DHT22;51382;53.180;15.414;2022-12-18T15:50:39;-3.70;99.90
20162;DHT22;51382;53.180;15.414;2022-12-18T16:05:50;-3.70;99.90
20162;DHT22;51382;53.180;15.414;2022-12-18T16:21:04;-3.80;99.90
20162;DHT22;51382;53.180;15.414;2022-12-18T16:36:17;-3.80;99.90
20162;DHT22;51382;53.180;15.414;2022-12-18T16:51:29;-3.80;99.90
20162;DHT22;51382;53.180;15.414;2022-12-18T17:06:46;-3.90;99.90
20162;DHT22;51382;53.180;15.414;2022-12-18T17:21:59;-3.80;99.90
20162;DHT22;51382;53.180;15.414;2022-12-18T17:37:11;-4.00;99.90
20162;DHT22;51382;53.180;15.414;2022-12-18T17:52:23;-4.00;99.90
20162;DHT22;51382;53.180;15.414;2022-12-18T18:07:34;-3.90;99.90
20162;DHT22;51382;53.180;15.414;2022-12-18T18:22:42;-4.00;99.90
20162;DHT22;51382;53.180;15.414;2022-12-18T18:37:55;-4.00;99.90
20162;DHT22;51382;53.180;15.414;2022-12-18T18:53:09;-4.00;99.90
20162;DHT22;51382;53.180;15.414;2022-12-18T19:08:21;-4.10;99.90
20162;DHT22;51382;53.180;15.414;2022-12-18T19:23:28;-4.10;99.90
20162;DHT22;51382;53.180;15.414;2022-12-18T19:38:45;-4.30;99.90
20162;DHT22;51382;53.180;15.414;2022-12-18T19:54:00;-4.40;99.90
20162;DHT22;51382;53.180;15.414;2022-12-18T20:09:13;-4.40;99.90
20162;DHT22;51382;53.180;15.414;2022-12-18T20:24:25;-4.60;99.90
20162;DHT22;51382;53.180;15.414;2022-12-18T20:39:39;-4.60;99.90
20162;DHT22;51382;53.180;15.414;2022-12-18T21:10:23;-4.90;99.90
20162;DHT22;51382;53.180;15.414;2022-12-18T21:25:35;-4.90;99.90
20162;DHT22;51382;53.180;15.414;2022-12-18T21:40:50;-5.10;99.90
20162;DHT22;51382;53.180;15.414;2022-12-18T21:56:01;-5.30;99.90
20162;DHT22;51382;53.180;15.414;2022-12-18T22:11:13;-5.50;99.90
20162;DHT22;51382;53.180;15.414;2022-12-18T22:26:21;-5.60;99.90
20162;DHT22;51382;53.180;15.414;2022-12-18T22:41:33;-5.70;99.90
20162;DHT22;51382;53.180;15.414;2022-12-18T22:56:44;-5.70;99.90
20162;DHT22;51382;53.180;15.414;2022-12-18T23:11:56;-5.60;99.90
20162;DHT22;51382;53.180;15.414;2022-12-18T23:27:07;-5.70;99.90
20162;DHT22;51382;53.180;15.414;2022-12-18T23:42:19;-5.70;99.90
20162;DHT22;51382;53.180;15.414;2022-12-18T23:57:30;-5.80;99.90
